Accueil
METAR-TAF:

METAR-TAF

Aéroports :

Shelby, Caroline du Nord, États-Unis

latitude: 35-15N, longitude: 081-36W, altitude: 258 m

Observation

Le bulletin a été fait il y a 14 minutes, à 21:35 UTC
Vent 15 kt de ouest avec des rafales jusqu'à 21 kt
Température 8°C
Humidité 53%
Pression 1015 hPa
Visibilité: 16.1 km
Nuages épars à une hauteur de 2300 ft
Nuages fragmentés à une hauteur de 4400 ft
Ciel couvert à une hauteur de 5500 ft

METAR: KEHO 282135Z AUTO 28015G21KT 10SM SCT023 BKN044 OVC055 08/M01 A2997 RMK AO2 T00811006

Heure: 16:49 (21:49 UTC)


TAF: absent

Observations et prévisions météorologiques de plus de 4000 aéroports (messages METAR et TAF).

Les stations disponibles sont représentées par des disques jaunes et rouges sur la carte.

Passer la souris dessus pour voir le nom de la station.

Cliquer dessus pour voir les observations et prévisions météorologiques.

Pour changer de carte: cliquez sur les boutons verts avec une croix noire pour zoomer, sur le bouton vert avec un tiret pour effectuer un zoom arrière, ou sur les flèches vertes pour les cartes adjacentes.


METAR-TAF: